sensor_id;sensor_type;location;lat;lon;timestamp;temperature;humidity
2723;DHT22;1369;53.216;10.396;2024-03-02T00:01:09;8.40;99.90
2723;DHT22;1369;53.216;10.396;2024-03-02T00:03:36;8.40;99.90
2723;DHT22;1369;53.216;10.396;2024-03-02T00:06:02;8.40;99.90
2723;DHT22;1369;53.216;10.396;2024-03-02T00:08:29;8.40;99.90
2723;DHT22;1369;53.216;10.396;2024-03-02T00:10:59;8.40;99.90
2723;DHT22;1369;53.216;10.396;2024-03-02T00:13:25;8.40;99.90
2723;DHT22;1369;53.216;10.396;2024-03-02T00:15:55;8.50;99.90
2723;DHT22;1369;53.216;10.396;2024-03-02T00:18:31;8.40;99.90
2723;DHT22;1369;53.216;10.396;2024-03-02T00:20:58;8.40;99.90
2723;DHT22;1369;53.216;10.396;2024-03-02T00:23:27;8.40;99.90
2723;DHT22;1369;53.216;10.396;2024-03-02T00:25:54;8.30;99.90
2723;DHT22;1369;53.216;10.396;2024-03-02T00:28:25;8.40;99.90
2723;DHT22;1369;53.216;10.396;2024-03-02T00:31:06;8.40;99.90
2723;DHT22;1369;53.216;10.396;2024-03-02T00:33:43;8.40;99.90
2723;DHT22;1369;53.216;10.396;2024-03-02T00:36:13;8.40;99.90
2723;DHT22;1369;53.216;10.396;2024-03-02T00:38:49;8.40;99.90
2723;DHT22;1369;53.216;10.396;2024-03-02T00:41:26;8.40;99.90
2723;DHT22;1369;53.216;10.396;2024-03-02T00:44:06;8.50;99.90
2723;DHT22;1369;53.216;10.396;2024-03-02T00:46:40;8.60;99.90
2723;DHT22;1369;53.216;10.396;2024-03-02T00:49:21;8.50;99.90
2723;DHT22;1369;53.216;10.396;2024-03-02T00:51:48;8.50;99.90
2723;DHT22;1369;53.216;10.396;2024-03-02T00:54:15;8.50;99.90
2723;DHT22;1369;53.216;10.396;2024-03-02T00:56:41;8.50;99.90
2723;DHT22;1369;53.216;10.396;2024-03-02T00:59:07;8.40;99.90
2723;DHT22;1369;53.216;10.396;2024-03-02T01:01:34;8.50;99.90
2723;DHT22;1369;53.216;10.396;2024-03-02T01:03:59;8.50;99.90
2723;DHT22;1369;53.216;10.396;2024-03-02T01:06:25;8.40;99.90
2723;DHT22;1369;53.216;10.396;2024-03-02T01:08:50;8.40;99.90
2723;DHT22;1369;53.216;10.396;2024-03-02T01:11:17;8.30;99.90
2723;DHT22;1369;53.216;10.396;2024-03-02T01:13:44;8.30;99.90
2723;DHT22;1369;53.216;10.396;2024-03-02T01:16:09;8.40;99.90
2723;DHT22;1369;53.216;10.396;2024-03-02T01:18:35;8.30;99.90
2723;DHT22;1369;53.216;10.396;2024-03-02T01:21:01;8.30;99.90
2723;DHT22;1369;53.216;10.396;2024-03-02T01:23:27;8.30;99.90
2723;DHT22;1369;53.216;10.396;2024-03-02T01:25:52;8.30;99.90
2723;DHT22;1369;53.216;10.396;2024-03-02T01:28:19;8.30;99.90
2723;DHT22;1369;53.216;10.396;2024-03-02T01:30:46;8.20;99.90
2723;DHT22;1369;53.216;10.396;2024-03-02T01:33:11;8.20;99.90
2723;DHT22;1369;53.216;10.396;2024-03-02T01:35:37;8.10;99.90
2723;DHT22;1369;53.216;10.396;2024-03-02T01:38:03;8.10;99.90
2723;DHT22;1369;53.216;10.396;2024-03-02T01:40:30;8.10;99.90
2723;DHT22;1369;53.216;10.396;2024-03-02T01:42:56;8.10;99.90
2723;DHT22;1369;53.216;10.396;2024-03-02T01:45:24;8.20;99.90
2723;DHT22;1369;53.216;10.396;2024-03-02T01:47:49;8.10;99.90
2723;DHT22;1369;53.216;10.396;2024-03-02T01:50:16;8.10;99.90
2723;DHT22;1369;53.216;10.396;2024-03-02T01:52:49;8.10;99.90
2723;DHT22;1369;53.216;10.396;2024-03-02T01:55:15;8.10;99.90
2723;DHT22;1369;53.216;10.396;2024-03-02T01:57:40;8.00;99.90
2723;DHT22;1369;53.216;10.396;2024-03-02T02:00:06;8.10;99.90
2723;DHT22;1369;53.216;10.396;2024-03-02T02:02:32;8.00;99.90
2723;DHT22;1369;53.216;10.396;2024-03-02T02:04:58;8.00;99.90
2723;DHT22;1369;53.216;10.396;2024-03-02T02:07:23;8.10;99.90
2723;DHT22;1369;53.216;10.396;2024-03-02T02:09:49;8.00;99.90
2723;DHT22;1369;53.216;10.396;2024-03-02T02:12:15;8.10;99.90
2723;DHT22;1369;53.216;10.396;2024-03-02T02:14:47;8.20;99.90
2723;DHT22;1369;53.216;10.396;2024-03-02T02:17:14;8.20;99.90
2723;DHT22;1369;53.216;10.396;2024-03-02T02:19:40;8.20;99.90
2723;DHT22;1369;53.216;10.396;2024-03-02T02:22:06;8.20;99.90
2723;DHT22;1369;53.216;10.396;2024-03-02T02:24:31;8.20;99.90
2723;DHT22;1369;53.216;10.396;2024-03-02T02:26:57;8.20;99.90
2723;DHT22;1369;53.216;10.396;2024-03-02T02:29:22;8.10;99.90
2723;DHT22;1369;53.216;10.396;2024-03-02T02:31:48;8.10;99.90
2723;DHT22;1369;53.216;10.396;2024-03-02T02:34:14;8.10;99.90
2723;DHT22;1369;53.216;10.396;2024-03-02T02:36:40;8.10;99.90
2723;DHT22;1369;53.216;10.396;2024-03-02T02:39:11;8.10;99.90
2723;DHT22;1369;53.216;10.396;2024-03-02T02:41:38;8.10;99.90
2723;DHT22;1369;53.216;10.396;2024-03-02T02:44:04;8.00;99.90
2723;DHT22;1369;53.216;10.396;2024-03-02T02:46:30;8.00;99.90
2723;DHT22;1369;53.216;10.396;2024-03-02T02:48:55;8.00;99.90
2723;DHT22;1369;53.216;10.396;2024-03-02T02:51:21;8.00;99.90
2723;DHT22;1369;53.216;10.396;2024-03-02T02:53:46;8.00;99.90
2723;DHT22;1369;53.216;10.396;2024-03-02T02:56:12;8.00;99.90
2723;DHT22;1369;53.216;10.396;2024-03-02T02:58:39;8.00;99.90
2723;DHT22;1369;53.216;10.396;2024-03-02T03:01:05;8.00;99.90
2723;DHT22;1369;53.216;10.396;2024-03-02T03:03:30;8.00;99.90
2723;DHT22;1369;53.216;10.396;2024-03-02T03:05:56;8.00;99.90
2723;DHT22;1369;53.216;10.396;2024-03-02T03:08:21;7.90;99.90
2723;DHT22;1369;53.216;10.396;2024-03-02T03:10:48;7.90;99.90
2723;DHT22;1369;53.216;10.396;2024-03-02T03:13:15;7.90;99.90
2723;DHT22;1369;53.216;10.396;2024-03-02T03:15:40;7.90;99.90
2723;DHT22;1369;53.216;10.396;2024-03-02T03:18:06;7.90;99.90
2723;DHT22;1369;53.216;10.396;2024-03-02T03:20:33;7.90;99.90
2723;DHT22;1369;53.216;10.396;2024-03-02T03:23:00;7.90;99.90
2723;DHT22;1369;53.216;10.396;2024-03-02T03:25:25;7.90;99.90
2723;DHT22;1369;53.216;10.396;2024-03-02T03:27:52;7.90;99.90
2723;DHT22;1369;53.216;10.396;2024-03-02T03:30:18;7.90;99.90
2723;DHT22;1369;53.216;10.396;2024-03-02T03:32:44;7.90;99.90
2723;DHT22;1369;53.216;10.396;2024-03-02T03:35:09;7.90;99.90
2723;DHT22;1369;53.216;10.396;2024-03-02T03:37:35;8.00;99.90
2723;DHT22;1369;53.216;10.396;2024-03-02T03:40:02;7.80;99.90
2723;DHT22;1369;53.216;10.396;2024-03-02T03:42:28;8.00;99.90
2723;DHT22;1369;53.216;10.396;2024-03-02T03:44:54;7.90;99.90
2723;DHT22;1369;53.216;10.396;2024-03-02T03:47:19;8.00;99.90
2723;DHT22;1369;53.216;10.396;2024-03-02T03:49:45;7.90;99.90
2723;DHT22;1369;53.216;10.396;2024-03-02T03:52:11;8.00;99.90
2723;DHT22;1369;53.216;10.396;2024-03-02T03:54:36;8.00;99.90
2723;DHT22;1369;53.216;10.396;2024-03-02T03:57:03;8.00;99.90
2723;DHT22;1369;53.216;10.396;2024-03-02T03:59:29;8.00;99.90
2723;DHT22;1369;53.216;10.396;2024-03-02T04:01:55;8.00;99.90
2723;DHT22;1369;53.216;10.396;2024-03-02T04:04:21;8.00;99.90
2723;DHT22;1369;53.216;10.396;2024-03-02T04:06:46;7.90;99.90
2723;DHT22;1369;53.216;10.396;2024-03-02T04:09:12;7.80;99.90
2723;DHT22;1369;53.216;10.396;2024-03-02T04:11:37;7.80;99.90
2723;DHT22;1369;53.216;10.396;2024-03-02T04:14:03;7.80;99.90
2723;DHT22;1369;53.216;10.396;2024-03-02T04:16:29;7.90;99.90
2723;DHT22;1369;53.216;10.396;2024-03-02T04:18:54;7.90;99.90
2723;DHT22;1369;53.216;10.396;2024-03-02T04:21:20;8.00;99.90
2723;DHT22;1369;53.216;10.396;2024-03-02T04:23:45;8.00;99.90
2723;DHT22;1369;53.216;10.396;2024-03-02T04:26:11;8.00;99.90
2723;DHT22;1369;53.216;10.396;2024-03-02T04:28:37;8.00;99.90
2723;DHT22;1369;53.216;10.396;2024-03-02T04:31:02;8.00;99.90
2723;DHT22;1369;53.216;10.396;2024-03-02T04:33:28;7.90;99.90
2723;DHT22;1369;53.216;10.396;2024-03-02T04:35:53;7.90;99.90
2723;DHT22;1369;53.216;10.396;2024-03-02T04:38:19;7.90;99.90
2723;DHT22;1369;53.216;10.396;2024-03-02T04:40:44;7.80;99.90
2723;DHT22;1369;53.216;10.396;2024-03-02T04:43:10;7.80;99.90
2723;DHT22;1369;53.216;10.396;2024-03-02T04:45:38;7.80;99.90
2723;DHT22;1369;53.216;10.396;2024-03-02T04:48:04;7.80;99.90
2723;DHT22;1369;53.216;10.396;2024-03-02T04:50:29;7.80;99.90
2723;DHT22;1369;53.216;10.396;2024-03-02T04:52:55;7.80;99.90
2723;DHT22;1369;53.216;10.396;2024-03-02T04:55:20;7.80;99.90
2723;DHT22;1369;53.216;10.396;2024-03-02T04:58:09;7.80;99.90
2723;DHT22;1369;53.216;10.396;2024-03-02T05:00:35;7.80;99.90
2723;DHT22;1369;53.216;10.396;2024-03-02T05:03:01;7.80;99.90
2723;DHT22;1369;53.216;10.396;2024-03-02T05:05:26;7.80;99.90
2723;DHT22;1369;53.216;10.396;2024-03-02T05:07:52;7.80;99.90
2723;DHT22;1369;53.216;10.396;2024-03-02T05:10:18;7.80;99.90
2723;DHT22;1369;53.216;10.396;2024-03-02T05:12:44;7.90;99.90
2723;DHT22;1369;53.216;10.396;2024-03-02T05:15:11;7.80;99.90
2723;DHT22;1369;53.216;10.396;2024-03-02T05:17:37;7.80;99.90
2723;DHT22;1369;53.216;10.396;2024-03-02T05:20:08;7.80;99.90
2723;DHT22;1369;53.216;10.396;2024-03-02T05:22:34;7.70;99.90
2723;DHT22;1369;53.216;10.396;2024-03-02T05:25:04;7.70;99.90
2723;DHT22;1369;53.216;10.396;2024-03-02T05:27:30;7.70;99.90
2723;DHT22;1369;53.216;10.396;2024-03-02T05:29:55;7.60;99.90
2723;DHT22;1369;53.216;10.396;2024-03-02T05:32:21;7.50;99.90
2723;DHT22;1369;53.216;10.396;2024-03-02T05:34:48;7.50;99.90
2723;DHT22;1369;53.216;10.396;2024-03-02T05:37:13;7.40;99.90
2723;DHT22;1369;53.216;10.396;2024-03-02T05:39:40;7.40;99.90
2723;DHT22;1369;53.216;10.396;2024-03-02T05:42:06;7.40;99.90
2723;DHT22;1369;53.216;10.396;2024-03-02T05:44:31;7.30;99.90
2723;DHT22;1369;53.216;10.396;2024-03-02T05:46:57;7.30;99.90
2723;DHT22;1369;53.216;10.396;2024-03-02T05:49:24;7.30;99.90
2723;DHT22;1369;53.216;10.396;2024-03-02T05:51:49;7.30;99.90
2723;DHT22;1369;53.216;10.396;2024-03-02T05:54:15;7.30;99.90
2723;DHT22;1369;53.216;10.396;2024-03-02T05:56:41;7.40;99.90
2723;DHT22;1369;53.216;10.396;2024-03-02T05:59:06;7.40;99.90
2723;DHT22;1369;53.216;10.396;2024-03-02T06:01:45;7.50;99.90
2723;DHT22;1369;53.216;10.396;2024-03-02T06:04:17;7.50;99.90
2723;DHT22;1369;53.216;10.396;2024-03-02T06:06:43;7.40;99.90
2723;DHT22;1369;53.216;10.396;2024-03-02T06:09:09;7.40;99.90
2723;DHT22;1369;53.216;10.396;2024-03-02T06:11:38;7.40;99.90
2723;DHT22;1369;53.216;10.396;2024-03-02T06:14:05;7.40;99.90
2723;DHT22;1369;53.216;10.396;2024-03-02T06:16:30;7.40;99.90
2723;DHT22;1369;53.216;10.396;2024-03-02T06:18:57;7.50;99.90
2723;DHT22;1369;53.216;10.396;2024-03-02T06:21:26;7.50;99.90
2723;DHT22;1369;53.216;10.396;2024-03-02T06:23:52;7.50;99.90
2723;DHT22;1369;53.216;10.396;2024-03-02T06:26:18;7.40;99.90
2723;DHT22;1369;53.216;10.396;2024-03-02T06:28:44;7.40;99.90
2723;DHT22;1369;53.216;10.396;2024-03-02T06:31:10;7.50;99.90
2723;DHT22;1369;53.216;10.396;2024-03-02T06:33:36;7.40;99.90
2723;DHT22;1369;53.216;10.396;2024-03-02T06:36:03;7.40;99.90
2723;DHT22;1369;53.216;10.396;2024-03-02T06:38:28;7.50;99.90
2723;DHT22;1369;53.216;10.396;2024-03-02T06:40:54;7.50;99.90
2723;DHT22;1369;53.216;10.396;2024-03-02T06:43:22;7.50;99.90
2723;DHT22;1369;53.216;10.396;2024-03-02T06:45:49;7.50;99.90
2723;DHT22;1369;53.216;10.396;2024-03-02T06:48:16;7.60;99.90
2723;DHT22;1369;53.216;10.396;2024-03-02T06:50:46;7.60;99.90
2723;DHT22;1369;53.216;10.396;2024-03-02T06:53:12;7.60;99.90
2723;DHT22;1369;53.216;10.396;2024-03-02T06:55:37;7.70;99.90
2723;DHT22;1369;53.216;10.396;2024-03-02T06:58:03;7.70;99.90
2723;DHT22;1369;53.216;10.396;2024-03-02T07:00:29;7.70;99.90
2723;DHT22;1369;53.216;10.396;2024-03-02T07:02:55;7.80;99.90
2723;DHT22;1369;53.216;10.396;2024-03-02T07:05:20;7.80;99.90
2723;DHT22;1369;53.216;10.396;2024-03-02T07:07:46;7.80;99.90
2723;DHT22;1369;53.216;10.396;2024-03-02T07:10:12;7.80;99.90
2723;DHT22;1369;53.216;10.396;2024-03-02T07:12:38;7.90;99.90
2723;DHT22;1369;53.216;10.396;2024-03-02T07:15:03;7.90;99.90
2723;DHT22;1369;53.216;10.396;2024-03-02T07:17:30;7.90;99.90
2723;DHT22;1369;53.216;10.396;2024-03-02T07:19:56;7.90;99.90
2723;DHT22;1369;53.216;10.396;2024-03-02T07:22:22;7.90;99.90
2723;DHT22;1369;53.216;10.396;2024-03-02T07:24:48;8.00;99.90
2723;DHT22;1369;53.216;10.396;2024-03-02T07:27:15;8.00;99.90
2723;DHT22;1369;53.216;10.396;2024-03-02T07:29:41;8.00;99.90
2723;DHT22;1369;53.216;10.396;2024-03-02T07:32:07;8.00;99.90
2723;DHT22;1369;53.216;10.396;2024-03-02T07:34:34;8.00;99.90
2723;DHT22;1369;53.216;10.396;2024-03-02T07:36:59;8.10;99.90
2723;DHT22;1369;53.216;10.396;2024-03-02T07:39:25;8.20;99.90
2723;DHT22;1369;53.216;10.396;2024-03-02T07:41:51;8.30;99.90
2723;DHT22;1369;53.216;10.396;2024-03-02T07:44:17;8.40;99.90
2723;DHT22;1369;53.216;10.396;2024-03-02T07:46:45;8.60;99.90
2723;DHT22;1369;53.216;10.396;2024-03-02T07:49:12;8.80;99.90
2723;DHT22;1369;53.216;10.396;2024-03-02T07:51:40;8.90;99.90
2723;DHT22;1369;53.216;10.396;2024-03-02T07:54:06;9.00;99.90
2723;DHT22;1369;53.216;10.396;2024-03-02T07:56:31;9.10;99.90
2723;DHT22;1369;53.216;10.396;2024-03-02T07:58:57;9.10;99.90
2723;DHT22;1369;53.216;10.396;2024-03-02T08:01:30;9.30;99.90
2723;DHT22;1369;53.216;10.396;2024-03-02T08:04:00;9.40;99.90
2723;DHT22;1369;53.216;10.396;2024-03-02T08:06:27;9.50;99.90
2723;DHT22;1369;53.216;10.396;2024-03-02T08:08:56;9.70;99.90
2723;DHT22;1369;53.216;10.396;2024-03-02T08:11:22;10.00;99.90
2723;DHT22;1369;53.216;10.396;2024-03-02T08:13:52;10.30;99.90
2723;DHT22;1369;53.216;10.396;2024-03-02T08:16:21;10.50;99.90
2723;DHT22;1369;53.216;10.396;2024-03-02T08:18:50;10.50;99.90
2723;DHT22;1369;53.216;10.396;2024-03-02T08:21:16;10.50;99.90
2723;DHT22;1369;53.216;10.396;2024-03-02T08:23:43;10.40;99.90
2723;DHT22;1369;53.216;10.396;2024-03-02T08:26:09;10.30;99.90
2723;DHT22;1369;53.216;10.396;2024-03-02T08:28:35;10.30;99.90
2723;DHT22;1369;53.216;10.396;2024-03-02T08:31:03;10.40;99.90
2723;DHT22;1369;53.216;10.396;2024-03-02T08:33:29;10.60;99.90
2723;DHT22;1369;53.216;10.396;2024-03-02T08:35:55;10.80;99.90
2723;DHT22;1369;53.216;10.396;2024-03-02T08:38:20;11.00;99.90
2723;DHT22;1369;53.216;10.396;2024-03-02T08:40:47;11.10;99.90
2723;DHT22;1369;53.216;10.396;2024-03-02T08:43:13;11.20;99.90
2723;DHT22;1369;53.216;10.396;2024-03-02T08:45:38;11.30;99.90
2723;DHT22;1369;53.216;10.396;2024-03-02T08:48:07;11.50;99.90
2723;DHT22;1369;53.216;10.396;2024-03-02T08:50:34;11.70;99.90
2723;DHT22;1369;53.216;10.396;2024-03-02T08:52:59;11.80;99.90
2723;DHT22;1369;53.216;10.396;2024-03-02T08:55:25;11.90;99.90
2723;DHT22;1369;53.216;10.396;2024-03-02T08:57:50;12.00;99.90
2723;DHT22;1369;53.216;10.396;2024-03-02T09:00:17;12.00;99.90
2723;DHT22;1369;53.216;10.396;2024-03-02T09:02:44;12.10;99.90
2723;DHT22;1369;53.216;10.396;2024-03-02T09:05:10;12.50;99.90
2723;DHT22;1369;53.216;10.396;2024-03-02T09:07:35;12.80;99.90
2723;DHT22;1369;53.216;10.396;2024-03-02T09:10:01;13.00;99.90
2723;DHT22;1369;53.216;10.396;2024-03-02T09:12:28;13.30;99.90
2723;DHT22;1369;53.216;10.396;2024-03-02T09:14:53;13.30;99.90
2723;DHT22;1369;53.216;10.396;2024-03-02T09:17:19;13.60;99.90
2723;DHT22;1369;53.216;10.396;2024-03-02T09:19:44;13.80;99.90
2723;DHT22;1369;53.216;10.396;2024-03-02T09:22:10;14.10;99.90
2723;DHT22;1369;53.216;10.396;2024-03-02T09:24:36;14.60;99.90
2723;DHT22;1369;53.216;10.396;2024-03-02T09:27:01;15.00;99.90
2723;DHT22;1369;53.216;10.396;2024-03-02T09:29:27;15.40;99.90
2723;DHT22;1369;53.216;10.396;2024-03-02T09:31:54;15.80;99.90
2723;DHT22;1369;53.216;10.396;2024-03-02T09:34:19;15.70;99.90
2723;DHT22;1369;53.216;10.396;2024-03-02T09:36:46;15.40;99.90
2723;DHT22;1369;53.216;10.396;2024-03-02T09:39:11;15.60;99.90
2723;DHT22;1369;53.216;10.396;2024-03-02T09:41:37;15.50;99.90
2723;DHT22;1369;53.216;10.396;2024-03-02T09:44:04;15.40;99.90
2723;DHT22;1369;53.216;10.396;2024-03-02T09:46:31;15.30;99.90
2723;DHT22;1369;53.216;10.396;2024-03-02T09:48:56;15.20;99.90
2723;DHT22;1369;53.216;10.396;2024-03-02T09:51:23;15.30;99.90
2723;DHT22;1369;53.216;10.396;2024-03-02T09:53:49;15.20;99.90
2723;DHT22;1369;53.216;10.396;2024-03-02T09:56:38;15.00;99.90
2723;DHT22;1369;53.216;10.396;2024-03-02T09:59:04;15.00;99.90
2723;DHT22;1369;53.216;10.396;2024-03-02T10:01:39;14.80;99.90
2723;DHT22;1369;53.216;10.396;2024-03-02T10:04:05;14.70;99.90
2723;DHT22;1369;53.216;10.396;2024-03-02T10:09:48;14.00;99.90
2723;DHT22;1369;53.216;10.396;2024-03-02T10:12:18;13.90;99.90
2723;DHT22;1369;53.216;10.396;2024-03-02T10:14:44;13.70;99.90
2723;DHT22;1369;53.216;10.396;2024-03-02T10:20:51;13.50;99.90
2723;DHT22;1369;53.216;10.396;2024-03-02T10:23:22;13.40;99.90
2723;DHT22;1369;53.216;10.396;2024-03-02T10:25:50;13.50;99.90
2723;DHT22;1369;53.216;10.396;2024-03-02T10:28:16;13.60;99.90
2723;DHT22;1369;53.216;10.396;2024-03-02T10:30:41;13.60;99.90
2723;DHT22;1369;53.216;10.396;2024-03-02T10:33:13;13.60;99.90
2723;DHT22;1369;53.216;10.396;2024-03-02T10:35:39;13.60;99.90
2723;DHT22;1369;53.216;10.396;2024-03-02T10:38:17;13.60;99.90
2723;DHT22;1369;53.216;10.396;2024-03-02T10:40:47;13.60;99.90
2723;DHT22;1369;53.216;10.396;2024-03-02T10:43:24;13.70;99.90
2723;DHT22;1369;53.216;10.396;2024-03-02T10:45:50;13.90;99.90
2723;DHT22;1369;53.216;10.396;2024-03-02T10:48:36;14.00;99.90
2723;DHT22;1369;53.216;10.396;2024-03-02T10:51:02;13.90;99.90
2723;DHT22;1369;53.216;10.396;2024-03-02T10:56:40;14.10;99.90
2723;DHT22;1369;53.216;10.396;2024-03-02T10:59:23;13.90;99.90
2723;DHT22;1369;53.216;10.396;2024-03-02T11:01:50;13.80;99.90
2723;DHT22;1369;53.216;10.396;2024-03-02T11:04:19;13.80;99.90
2723;DHT22;1369;53.216;10.396;2024-03-02T11:06:48;13.70;99.90
2723;DHT22;1369;53.216;10.396;2024-03-02T11:09:15;13.80;99.90
2723;DHT22;1369;53.216;10.396;2024-03-02T11:11:43;13.80;99.90
2723;DHT22;1369;53.216;10.396;2024-03-02T11:14:14;13.80;99.90
2723;DHT22;1369;53.216;10.396;2024-03-02T11:16:42;13.80;99.90
2723;DHT22;1369;53.216;10.396;2024-03-02T11:19:12;13.80;99.90
2723;DHT22;1369;53.216;10.396;2024-03-02T11:25:31;13.70;99.90
2723;DHT22;1369;53.216;10.396;2024-03-02T11:28:04;13.80;99.90
2723;DHT22;1369;53.216;10.396;2024-03-02T11:33:12;13.60;99.90
2723;DHT22;1369;53.216;10.396;2024-03-02T11:35:57;13.60;99.90
2723;DHT22;1369;53.216;10.396;2024-03-02T11:38:28;13.60;99.90
2723;DHT22;1369;53.216;10.396;2024-03-02T11:41:06;13.50;99.90
2723;DHT22;1369;53.216;10.396;2024-03-02T11:43:33;13.40;99.90
2723;DHT22;1369;53.216;10.396;2024-03-02T11:52:42;13.50;99.90
2723;DHT22;1369;53.216;10.396;2024-03-02T11:55:09;13.50;99.90
2723;DHT22;1369;53.216;10.396;2024-03-02T11:57:37;13.40;99.90
2723;DHT22;1369;53.216;10.396;2024-03-02T12:00:04;13.50;99.90
2723;DHT22;1369;53.216;10.396;2024-03-02T12:02:31;13.40;99.90
2723;DHT22;1369;53.216;10.396;2024-03-02T12:05:04;13.30;99.90
2723;DHT22;1369;53.216;10.396;2024-03-02T12:07:30;13.40;99.90
2723;DHT22;1369;53.216;10.396;2024-03-02T12:10:02;13.30;99.90
2723;DHT22;1369;53.216;10.396;2024-03-02T12:12:29;13.30;99.90
2723;DHT22;1369;53.216;10.396;2024-03-02T12:14:55;13.30;99.90
2723;DHT22;1369;53.216;10.396;2024-03-02T12:17:25;13.30;99.90
2723;DHT22;1369;53.216;10.396;2024-03-02T12:19:51;13.40;99.90
2723;DHT22;1369;53.216;10.396;2024-03-02T12:22:44;13.40;99.90
2723;DHT22;1369;53.216;10.396;2024-03-02T12:25:11;13.40;99.90
2723;DHT22;1369;53.216;10.396;2024-03-02T12:27:54;13.50;99.90
2723;DHT22;1369;53.216;10.396;2024-03-02T12:30:21;13.60;99.90
2723;DHT22;1369;53.216;10.396;2024-03-02T12:33:01;13.60;99.90
2723;DHT22;1369;53.216;10.396;2024-03-02T12:35:27;13.60;99.90
2723;DHT22;1369;53.216;10.396;2024-03-02T12:37:54;13.60;99.90
2723;DHT22;1369;53.216;10.396;2024-03-02T12:40:21;13.70;99.90
2723;DHT22;1369;53.216;10.396;2024-03-02T12:43:24;13.80;99.90
2723;DHT22;1369;53.216;10.396;2024-03-02T12:45:49;13.90;99.90
2723;DHT22;1369;53.216;10.396;2024-03-02T12:48:15;14.00;99.90
2723;DHT22;1369;53.216;10.396;2024-03-02T12:50:41;14.10;99.90
2723;DHT22;1369;53.216;10.396;2024-03-02T12:53:41;14.10;99.90
2723;DHT22;1369;53.216;10.396;2024-03-02T12:56:08;14.10;99.90
2723;DHT22;1369;53.216;10.396;2024-03-02T12:58:52;14.10;99.90
2723;DHT22;1369;53.216;10.396;2024-03-02T13:01:18;14.20;99.90
2723;DHT22;1369;53.216;10.396;2024-03-02T13:03:52;14.20;99.90
2723;DHT22;1369;53.216;10.396;2024-03-02T13:06:17;14.20;99.90
2723;DHT22;1369;53.216;10.396;2024-03-02T13:08:45;14.20;99.90
2723;DHT22;1369;53.216;10.396;2024-03-02T13:11:17;14.10;99.90
2723;DHT22;1369;53.216;10.396;2024-03-02T13:13:43;14.10;99.90
2723;DHT22;1369;53.216;10.396;2024-03-02T13:16:25;14.10;99.90
2723;DHT22;1369;53.216;10.396;2024-03-02T13:18:51;14.20;99.90
2723;DHT22;1369;53.216;10.396;2024-03-02T13:21:17;14.20;99.90
2723;DHT22;1369;53.216;10.396;2024-03-02T13:23:42;14.30;99.90
2723;DHT22;1369;53.216;10.396;2024-03-02T13:26:08;14.30;99.90
2723;DHT22;1369;53.216;10.396;2024-03-02T13:28:36;14.30;99.90
2723;DHT22;1369;53.216;10.396;2024-03-02T13:31:05;14.30;99.90
2723;DHT22;1369;53.216;10.396;2024-03-02T13:33:31;14.20;99.90
2723;DHT22;1369;53.216;10.396;2024-03-02T13:36:00;14.00;99.90
2723;DHT22;1369;53.216;10.396;2024-03-02T13:38:27;14.00;99.90
2723;DHT22;1369;53.216;10.396;2024-03-02T13:40:54;14.00;99.90
2723;DHT22;1369;53.216;10.396;2024-03-02T13:43:20;14.10;99.90
2723;DHT22;1369;53.216;10.396;2024-03-02T13:45:46;14.10;99.90
2723;DHT22;1369;53.216;10.396;2024-03-02T13:48:11;14.00;99.90
2723;DHT22;1369;53.216;10.396;2024-03-02T13:50:50;14.00;99.90
2723;DHT22;1369;53.216;10.396;2024-03-02T13:53:16;14.00;99.90
2723;DHT22;1369;53.216;10.396;2024-03-02T13:55:42;13.90;99.90
2723;DHT22;1369;53.216;10.396;2024-03-02T13:58:08;13.90;99.90
2723;DHT22;1369;53.216;10.396;2024-03-02T14:00:34;13.80;99.90
2723;DHT22;1369;53.216;10.396;2024-03-02T14:02:59;13.80;99.90
2723;DHT22;1369;53.216;10.396;2024-03-02T14:05:33;13.90;99.90
2723;DHT22;1369;53.216;10.396;2024-03-02T14:07:59;13.90;99.90
2723;DHT22;1369;53.216;10.396;2024-03-02T14:10:33;13.90;99.90
2723;DHT22;1369;53.216;10.396;2024-03-02T14:13:01;13.90;99.90
2723;DHT22;1369;53.216;10.396;2024-03-02T14:15:27;13.90;99.90
2723;DHT22;1369;53.216;10.396;2024-03-02T14:18:07;13.90;99.90
2723;DHT22;1369;53.216;10.396;2024-03-02T14:20:35;13.90;99.90
2723;DHT22;1369;53.216;10.396;2024-03-02T14:23:08;13.80;99.90
2723;DHT22;1369;53.216;10.396;2024-03-02T14:25:35;13.80;99.90
2723;DHT22;1369;53.216;10.396;2024-03-02T14:28:08;13.80;99.90
2723;DHT22;1369;53.216;10.396;2024-03-02T14:30:34;13.70;99.90
2723;DHT22;1369;53.216;10.396;2024-03-02T14:33:24;13.70;99.90
2723;DHT22;1369;53.216;10.396;2024-03-02T14:35:49;13.70;99.90
2723;DHT22;1369;53.216;10.396;2024-03-02T14:38:27;13.60;99.90
2723;DHT22;1369;53.216;10.396;2024-03-02T14:40:54;13.60;99.90
2723;DHT22;1369;53.216;10.396;2024-03-02T14:43:20;13.50;99.90
2723;DHT22;1369;53.216;10.396;2024-03-02T14:45:45;13.50;99.90
2723;DHT22;1369;53.216;10.396;2024-03-02T14:48:21;13.60;99.90
2723;DHT22;1369;53.216;10.396;2024-03-02T14:50:47;13.60;99.90
2723;DHT22;1369;53.216;10.396;2024-03-02T14:53:39;13.60;99.90
2723;DHT22;1369;53.216;10.396;2024-03-02T14:56:05;13.60;99.90
2723;DHT22;1369;53.216;10.396;2024-03-02T15:01:44;13.60;99.90
2723;DHT22;1369;53.216;10.396;2024-03-02T15:07:27;13.80;99.90
2723;DHT22;1369;53.216;10.396;2024-03-02T15:09:52;13.90;99.90
2723;DHT22;1369;53.216;10.396;2024-03-02T15:12:47;14.00;99.90
2723;DHT22;1369;53.216;10.396;2024-03-02T15:15:13;13.90;99.90
2723;DHT22;1369;53.216;10.396;2024-03-02T15:17:50;14.00;99.90
2723;DHT22;1369;53.216;10.396;2024-03-02T15:20:16;14.00;99.90
2723;DHT22;1369;53.216;10.396;2024-03-02T15:22:42;14.00;99.90
2723;DHT22;1369;53.216;10.396;2024-03-02T15:25:08;14.10;99.90
2723;DHT22;1369;53.216;10.396;2024-03-02T15:27:34;14.10;99.90
2723;DHT22;1369;53.216;10.396;2024-03-02T15:30:00;14.00;99.90
2723;DHT22;1369;53.216;10.396;2024-03-02T15:32:32;14.00;99.90
2723;DHT22;1369;53.216;10.396;2024-03-02T15:34:59;14.00;99.90
2723;DHT22;1369;53.216;10.396;2024-03-02T15:37:35;14.00;99.90
2723;DHT22;1369;53.216;10.396;2024-03-02T15:40:01;14.00;99.90
2723;DHT22;1369;53.216;10.396;2024-03-02T15:42:32;14.00;99.90
2723;DHT22;1369;53.216;10.396;2024-03-02T15:44:58;14.00;99.90
2723;DHT22;1369;53.216;10.396;2024-03-02T15:47:27;13.90;99.90
2723;DHT22;1369;53.216;10.396;2024-03-02T15:49:52;13.90;99.90
2723;DHT22;1369;53.216;10.396;2024-03-02T15:52:20;13.90;99.90
2723;DHT22;1369;53.216;10.396;2024-03-02T15:54:47;13.80;99.90
2723;DHT22;1369;53.216;10.396;2024-03-02T15:57:16;13.80;99.90
2723;DHT22;1369;53.216;10.396;2024-03-02T15:59:43;13.70;99.90
2723;DHT22;1369;53.216;10.396;2024-03-02T16:05:19;13.50;99.90
2723;DHT22;1369;53.216;10.396;2024-03-02T16:07:53;13.40;99.90
2723;DHT22;1369;53.216;10.396;2024-03-02T16:10:18;13.30;99.90
2723;DHT22;1369;53.216;10.396;2024-03-02T16:12:53;13.20;99.90
2723;DHT22;1369;53.216;10.396;2024-03-02T16:15:21;13.20;99.90
2723;DHT22;1369;53.216;10.396;2024-03-02T16:21:24;13.00;99.90
2723;DHT22;1369;53.216;10.396;2024-03-02T16:23:51;13.00;99.90
2723;DHT22;1369;53.216;10.396;2024-03-02T16:26:33;12.90;99.90
2723;DHT22;1369;53.216;10.396;2024-03-02T16:28:59;12.80;99.90
2723;DHT22;1369;53.216;10.396;2024-03-02T16:31:28;12.70;99.90
2723;DHT22;1369;53.216;10.396;2024-03-02T16:33:53;12.60;99.90
2723;DHT22;1369;53.216;10.396;2024-03-02T16:39:34;12.40;99.90